sensor_id;sensor_type;location;lat;lon;timestamp;P1;durP1;ratioP1;P2;durP2;ratioP2
9827;SDS011;4953;48.952;9.442;2022-12-18T05:00:34;60.07;;;27.20;;
9827;SDS011;4953;48.952;9.442;2022-12-18T05:03:01;67.60;;;27.43;;
9827;SDS011;4953;48.952;9.442;2022-12-18T05:05:28;57.40;;;26.17;;
9827;SDS011;4953;48.952;9.442;2022-12-18T05:07:55;62.43;;;28.33;;
9827;SDS011;4953;48.952;9.442;2022-12-18T05:10:21;51.50;;;25.23;;
9827;SDS011;4953;48.952;9.442;2022-12-18T05:12:48;48.13;;;23.23;;
9827;SDS011;4953;48.952;9.442;2022-12-18T05:15:24;61.90;;;24.63;;
9827;SDS011;4953;48.952;9.442;2022-12-18T05:17:53;48.13;;;24.57;;
9827;SDS011;4953;48.952;9.442;2022-12-18T05:20:20;46.50;;;21.90;;
9827;SDS011;4953;48.952;9.442;2022-12-18T05:22:47;44.57;;;19.50;;
9827;SDS011;4953;48.952;9.442;2022-12-18T05:25:14;47.27;;;20.27;;
9827;SDS011;4953;48.952;9.442;2022-12-18T05:27:41;40.20;;;20.10;;
9827;SDS011;4953;48.952;9.442;2022-12-18T05:30:08;40.60;;;18.30;;
9827;SDS011;4953;48.952;9.442;2022-12-18T05:32:35;46.60;;;19.50;;
9827;SDS011;4953;48.952;9.442;2022-12-18T05:35:05;38.53;;;18.20;;
9827;SDS011;4953;48.952;9.442;2022-12-18T05:37:33;48.07;;;19.83;;
9827;SDS011;4953;48.952;9.442;2022-12-18T05:40:00;44.57;;;20.17;;
9827;SDS011;4953;48.952;9.442;2022-12-18T05:42:27;45.87;;;19.97;;
9827;SDS011;4953;48.952;9.442;2022-12-18T05:44:54;43.57;;;19.10;;
9827;SDS011;4953;48.952;9.442;2022-12-18T05:47:21;43.87;;;19.63;;
9827;SDS011;4953;48.952;9.442;2022-12-18T05:49:47;43.50;;;19.00;;
9827;SDS011;4953;48.952;9.442;2022-12-18T05:52:15;49.90;;;20.70;;
9827;SDS011;4953;48.952;9.442;2022-12-18T05:54:42;43.27;;;18.23;;
9827;SDS011;4953;48.952;9.442;2022-12-18T05:57:09;43.03;;;20.20;;
9827;SDS011;4953;48.952;9.442;2022-12-18T05:59:36;49.00;;;19.13;;
9827;SDS011;4953;48.952;9.442;2022-12-18T06:02:03;43.37;;;19.50;;
9827;SDS011;4953;48.952;9.442;2022-12-18T06:04:29;44.80;;;19.60;;
9827;SDS011;4953;48.952;9.442;2022-12-18T06:06:56;49.67;;;19.10;;
9827;SDS011;4953;48.952;9.442;2022-12-18T06:09:24;49.53;;;20.33;;
9827;SDS011;4953;48.952;9.442;2022-12-18T06:11:52;40.83;;;18.30;;
9827;SDS011;4953;48.952;9.442;2022-12-18T06:14:18;45.50;;;18.80;;
9827;SDS011;4953;48.952;9.442;2022-12-18T06:16:45;45.43;;;19.30;;
9827;SDS011;4953;48.952;9.442;2022-12-18T06:19:14;44.93;;;18.80;;
9827;SDS011;4953;48.952;9.442;2022-12-18T06:21:42;44.97;;;18.07;;
9827;SDS011;4953;48.952;9.442;2022-12-18T06:24:09;46.93;;;18.77;;
9827;SDS011;4953;48.952;9.442;2022-12-18T06:26:38;40.17;;;18.17;;
9827;SDS011;4953;48.952;9.442;2022-12-18T06:29:05;39.00;;;19.20;;
9827;SDS011;4953;48.952;9.442;2022-12-18T06:31:32;40.17;;;18.00;;
9827;SDS011;4953;48.952;9.442;2022-12-18T06:33:58;46.07;;;18.47;;
9827;SDS011;4953;48.952;9.442;2022-12-18T06:36:27;37.40;;;18.70;;
9827;SDS011;4953;48.952;9.442;2022-12-18T06:38:54;47.13;;;21.60;;
9827;SDS011;4953;48.952;9.442;2022-12-18T06:41:22;39.37;;;17.73;;
9827;SDS011;4953;48.952;9.442;2022-12-18T06:43:50;45.60;;;19.33;;
9827;SDS011;4953;48.952;9.442;2022-12-18T06:46:17;41.50;;;17.90;;
9827;SDS011;4953;48.952;9.442;2022-12-18T06:48:46;40.60;;;18.80;;
9827;SDS011;4953;48.952;9.442;2022-12-18T06:51:15;44.77;;;19.23;;
9827;SDS011;4953;48.952;9.442;2022-12-18T06:53:43;47.10;;;18.87;;
9827;SDS011;4953;48.952;9.442;2022-12-18T06:56:09;45.40;;;19.20;;
9827;SDS011;4953;48.952;9.442;2022-12-18T06:58:36;56.67;;;21.00;;
9827;SDS011;4953;48.952;9.442;2022-12-18T07:01:06;40.77;;;18.40;;
9827;SDS011;4953;48.952;9.442;2022-12-18T07:03:34;38.03;;;18.43;;
9827;SDS011;4953;48.952;9.442;2022-12-18T07:06:01;48.50;;;19.40;;
9827;SDS011;4953;48.952;9.442;2022-12-18T07:08:28;42.27;;;19.50;;
9827;SDS011;4953;48.952;9.442;2022-12-18T07:10:56;54.33;;;22.02;;
9827;SDS011;4953;48.952;9.442;2022-12-18T07:13:22;46.03;;;21.37;;
9827;SDS011;4953;48.952;9.442;2022-12-18T07:15:49;48.67;;;20.23;;
9827;SDS011;4953;48.952;9.442;2022-12-18T07:18:17;45.97;;;20.07;;
9827;SDS011;4953;48.952;9.442;2022-12-18T07:20:44;44.53;;;19.13;;
9827;SDS011;4953;48.952;9.442;2022-12-18T07:23:11;51.77;;;18.83;;
9827;SDS011;4953;48.952;9.442;2022-12-18T07:25:38;44.03;;;19.53;;
9827;SDS011;4953;48.952;9.442;2022-12-18T07:28:05;40.53;;;16.83;;
9827;SDS011;4953;48.952;9.442;2022-12-18T07:30:32;45.80;;;18.27;;
9827;SDS011;4953;48.952;9.442;2022-12-18T07:32:59;47.57;;;19.57;;
9827;SDS011;4953;48.952;9.442;2022-12-18T07:35:27;41.80;;;18.73;;
9827;SDS011;4953;48.952;9.442;2022-12-18T07:37:54;42.77;;;17.87;;
9827;SDS011;4953;48.952;9.442;2022-12-18T07:40:20;44.90;;;18.63;;
9827;SDS011;4953;48.952;9.442;2022-12-18T07:42:47;42.77;;;19.10;;
9827;SDS011;4953;48.952;9.442;2022-12-18T07:45:14;41.03;;;17.70;;
9827;SDS011;4953;48.952;9.442;2022-12-18T07:47:41;44.73;;;18.67;;
9827;SDS011;4953;48.952;9.442;2022-12-18T07:50:08;44.40;;;18.00;;
9827;SDS011;4953;48.952;9.442;2022-12-18T07:52:36;49.40;;;19.87;;
9827;SDS011;4953;48.952;9.442;2022-12-18T07:55:03;50.90;;;20.13;;
9827;SDS011;4953;48.952;9.442;2022-12-18T07:57:30;45.03;;;18.90;;
9827;SDS011;4953;48.952;9.442;2022-12-18T07:59:57;50.00;;;20.40;;
9827;SDS011;4953;48.952;9.442;2022-12-18T08:02:24;54.93;;;19.30;;
9827;SDS011;4953;48.952;9.442;2022-12-18T08:04:51;44.93;;;18.13;;
9827;SDS011;4953;48.952;9.442;2022-12-18T08:07:17;50.17;;;20.43;;
9827;SDS011;4953;48.952;9.442;2022-12-18T08:09:46;43.47;;;17.60;;
9827;SDS011;4953;48.952;9.442;2022-12-18T08:12:12;55.73;;;20.73;;
9827;SDS011;4953;48.952;9.442;2022-12-18T08:14:39;47.90;;;18.17;;
9827;SDS011;4953;48.952;9.442;2022-12-18T08:17:06;45.87;;;18.00;;
9827;SDS011;4953;48.952;9.442;2022-12-18T08:19:33;43.07;;;17.90;;
9827;SDS011;4953;48.952;9.442;2022-12-18T08:21:59;50.17;;;20.40;;
9827;SDS011;4953;48.952;9.442;2022-12-18T08:24:26;41.80;;;18.00;;
9827;SDS011;4953;48.952;9.442;2022-12-18T08:26:54;40.77;;;17.57;;
9827;SDS011;4953;48.952;9.442;2022-12-18T08:29:22;43.07;;;18.90;;
9827;SDS011;4953;48.952;9.442;2022-12-18T08:31:49;43.67;;;17.83;;
9827;SDS011;4953;48.952;9.442;2022-12-18T08:34:15;48.07;;;18.93;;
9827;SDS011;4953;48.952;9.442;2022-12-18T08:36:42;43.87;;;18.80;;
9827;SDS011;4953;48.952;9.442;2022-12-18T08:39:09;42.90;;;19.37;;
9827;SDS011;4953;48.952;9.442;2022-12-18T08:41:36;47.40;;;19.67;;
9827;SDS011;4953;48.952;9.442;2022-12-18T08:44:04;47.10;;;19.47;;
9827;SDS011;4953;48.952;9.442;2022-12-18T08:46:57;42.73;;;18.27;;
9827;SDS011;4953;48.952;9.442;2022-12-18T08:49:23;47.50;;;18.67;;
9827;SDS011;4953;48.952;9.442;2022-12-18T08:51:53;45.63;;;21.07;;
9827;SDS011;4953;48.952;9.442;2022-12-18T08:54:22;49.63;;;20.53;;
9827;SDS011;4953;48.952;9.442;2022-12-18T08:56:48;51.80;;;20.43;;
9827;SDS011;4953;48.952;9.442;2022-12-18T08:59:17;50.80;;;21.43;;
9827;SDS011;4953;48.952;9.442;2022-12-18T09:01:44;54.23;;;22.80;;
9827;SDS011;4953;48.952;9.442;2022-12-18T09:04:12;50.70;;;21.27;;
9827;SDS011;4953;48.952;9.442;2022-12-18T09:06:40;50.67;;;21.30;;
9827;SDS011;4953;48.952;9.442;2022-12-18T09:09:07;47.33;;;20.60;;
9827;SDS011;4953;48.952;9.442;2022-12-18T09:11:36;63.20;;;22.53;;
9827;SDS011;4953;48.952;9.442;2022-12-18T09:14:02;46.53;;;20.70;;
9827;SDS011;4953;48.952;9.442;2022-12-18T09:16:31;42.27;;;19.93;;
9827;SDS011;4953;48.952;9.442;2022-12-18T09:19:00;47.22;;;23.42;;
9827;SDS011;4953;48.952;9.442;2022-12-18T09:21:29;50.50;;;22.27;;
9827;SDS011;4953;48.952;9.442;2022-12-18T09:23:57;47.77;;;19.67;;
9827;SDS011;4953;48.952;9.442;2022-12-18T09:26:25;53.20;;;21.43;;
9827;SDS011;4953;48.952;9.442;2022-12-18T09:28:52;50.60;;;20.43;;
9827;SDS011;4953;48.952;9.442;2022-12-18T09:31:21;52.23;;;21.33;;
9827;SDS011;4953;48.952;9.442;2022-12-18T09:33:51;44.83;;;20.40;;
9827;SDS011;4953;48.952;9.442;2022-12-18T09:36:18;48.03;;;19.70;;
9827;SDS011;4953;48.952;9.442;2022-12-18T09:38:44;42.20;;;18.10;;
9827;SDS011;4953;48.952;9.442;2022-12-18T09:41:17;44.17;;;18.63;;
9827;SDS011;4953;48.952;9.442;2022-12-18T09:43:58;46.27;;;19.33;;
9827;SDS011;4953;48.952;9.442;2022-12-18T09:46:29;46.73;;;19.47;;
9827;SDS011;4953;48.952;9.442;2022-12-18T09:49:01;40.60;;;19.20;;
9827;SDS011;4953;48.952;9.442;2022-12-18T09:51:33;48.07;;;20.00;;
9827;SDS011;4953;48.952;9.442;2022-12-18T09:54:06;44.57;;;18.93;;
9827;SDS011;4953;48.952;9.442;2022-12-18T09:56:38;51.53;;;22.00;;
9827;SDS011;4953;48.952;9.442;2022-12-18T09:59:14;41.30;;;18.33;;
9827;SDS011;4953;48.952;9.442;2022-12-18T10:01:47;39.80;;;18.13;;
9827;SDS011;4953;48.952;9.442;2022-12-18T10:04:15;39.27;;;18.17;;
9827;SDS011;4953;48.952;9.442;2022-12-18T10:06:43;38.83;;;17.60;;
9827;SDS011;4953;48.952;9.442;2022-12-18T10:09:15;37.27;;;17.17;;
9827;SDS011;4953;48.952;9.442;2022-12-18T10:11:53;43.83;;;18.23;;
9827;SDS011;4953;48.952;9.442;2022-12-18T10:14:27;39.57;;;18.30;;
9827;SDS011;4953;48.952;9.442;2022-12-18T10:17:02;40.90;;;17.30;;
9827;SDS011;4953;48.952;9.442;2022-12-18T10:19:40;41.47;;;17.77;;
9827;SDS011;4953;48.952;9.442;2022-12-18T10:22:18;41.43;;;18.30;;
9827;SDS011;4953;48.952;9.442;2022-12-18T10:25:04;39.40;;;17.57;;
9827;SDS011;4953;48.952;9.442;2022-12-18T10:27:40;42.13;;;18.47;;
9827;SDS011;4953;48.952;9.442;2022-12-18T10:30:12;41.63;;;20.43;;
9827;SDS011;4953;48.952;9.442;2022-12-18T10:32:40;41.27;;;17.70;;
9827;SDS011;4953;48.952;9.442;2022-12-18T10:35:11;38.03;;;18.03;;
9827;SDS011;4953;48.952;9.442;2022-12-18T10:40:34;44.00;;;18.60;;
9827;SDS011;4953;48.952;9.442;2022-12-18T10:43:16;41.60;;;18.03;;
9827;SDS011;4953;48.952;9.442;2022-12-18T10:45:58;40.90;;;18.30;;
9827;SDS011;4953;48.952;9.442;2022-12-18T10:48:30;41.50;;;18.80;;
9827;SDS011;4953;48.952;9.442;2022-12-18T10:51:00;40.70;;;18.53;;
9827;SDS011;4953;48.952;9.442;2022-12-18T10:53:29;38.77;;;17.93;;
9827;SDS011;4953;48.952;9.442;2022-12-18T10:55:58;36.80;;;17.03;;
9827;SDS011;4953;48.952;9.442;2022-12-18T10:58:28;35.90;;;15.87;;
9827;SDS011;4953;48.952;9.442;2022-12-18T11:03:46;37.50;;;18.50;;
9827;SDS011;4953;48.952;9.442;2022-12-18T11:06:26;38.47;;;16.20;;
9827;SDS011;4953;48.952;9.442;2022-12-18T11:08:58;39.03;;;18.37;;
9827;SDS011;4953;48.952;9.442;2022-12-18T11:11:26;39.77;;;16.60;;
9827;SDS011;4953;48.952;9.442;2022-12-18T11:13:58;35.30;;;16.30;;
9827;SDS011;4953;48.952;9.442;2022-12-18T11:16:29;30.97;;;16.03;;
9827;SDS011;4953;48.952;9.442;2022-12-18T11:19:13;40.87;;;16.97;;
9827;SDS011;4953;48.952;9.442;2022-12-18T11:21:48;33.90;;;16.77;;
9827;SDS011;4953;48.952;9.442;2022-12-18T11:24:18;33.53;;;16.47;;
9827;SDS011;4953;48.952;9.442;2022-12-18T11:26:48;32.37;;;15.43;;
9827;SDS011;4953;48.952;9.442;2022-12-18T11:29:16;31.00;;;16.13;;
9827;SDS011;4953;48.952;9.442;2022-12-18T11:31:48;39.27;;;19.00;;
9827;SDS011;4953;48.952;9.442;2022-12-18T11:34:16;32.80;;;15.90;;
9827;SDS011;4953;48.952;9.442;2022-12-18T11:36:50;39.60;;;17.40;;
9827;SDS011;4953;48.952;9.442;2022-12-18T11:39:18;34.23;;;16.20;;
9827;SDS011;4953;48.952;9.442;2022-12-18T11:41:52;33.00;;;16.13;;
9827;SDS011;4953;48.952;9.442;2022-12-18T11:44:38;35.00;;;16.00;;
9827;SDS011;4953;48.952;9.442;2022-12-18T11:47:10;33.93;;;15.83;;
9827;SDS011;4953;48.952;9.442;2022-12-18T11:49:47;33.03;;;17.43;;
9827;SDS011;4953;48.952;9.442;2022-12-18T11:52:18;33.13;;;16.30;;
9827;SDS011;4953;48.952;9.442;2022-12-18T11:54:50;32.33;;;16.20;;
9827;SDS011;4953;48.952;9.442;2022-12-18T11:57:21;31.33;;;15.70;;
9827;SDS011;4953;48.952;9.442;2022-12-18T12:00:03;34.87;;;16.27;;
9827;SDS011;4953;48.952;9.442;2022-12-18T12:05:40;33.40;;;16.37;;
9827;SDS011;4953;48.952;9.442;2022-12-18T12:08:18;34.80;;;16.77;;
9827;SDS011;4953;48.952;9.442;2022-12-18T12:10:53;33.33;;;16.20;;
9827;SDS011;4953;48.952;9.442;2022-12-18T12:13:32;30.23;;;14.80;;
9827;SDS011;4953;48.952;9.442;2022-12-18T12:16:10;37.07;;;17.90;;
9827;SDS011;4953;48.952;9.442;2022-12-18T12:18:46;34.70;;;16.37;;
9827;SDS011;4953;48.952;9.442;2022-12-18T12:21:23;29.23;;;16.37;;
9827;SDS011;4953;48.952;9.442;2022-12-18T12:23:57;30.33;;;17.10;;
9827;SDS011;4953;48.952;9.442;2022-12-18T12:26:30;34.20;;;16.43;;
9827;SDS011;4953;48.952;9.442;2022-12-18T12:29:05;29.97;;;16.40;;
9827;SDS011;4953;48.952;9.442;2022-12-18T12:31:44;35.75;;;19.33;;
9827;SDS011;4953;48.952;9.442;2022-12-18T12:34:22;31.43;;;15.70;;
9827;SDS011;4953;48.952;9.442;2022-12-18T12:37:05;34.63;;;16.80;;
9827;SDS011;4953;48.952;9.442;2022-12-18T12:39:43;30.43;;;16.23;;
9827;SDS011;4953;48.952;9.442;2022-12-18T12:42:15;28.90;;;16.40;;
9827;SDS011;4953;48.952;9.442;2022-12-18T12:45:05;33.03;;;15.10;;
9827;SDS011;4953;48.952;9.442;2022-12-18T12:47:40;30.90;;;18.50;;
9827;SDS011;4953;48.952;9.442;2022-12-18T12:50:12;36.13;;;17.37;;
9827;SDS011;4953;48.952;9.442;2022-12-18T12:52:44;34.50;;;17.03;;
9827;SDS011;4953;48.952;9.442;2022-12-18T12:55:16;31.00;;;15.50;;
9827;SDS011;4953;48.952;9.442;2022-12-18T12:57:47;35.63;;;17.83;;
9827;SDS011;4953;48.952;9.442;2022-12-18T13:00:19;37.57;;;17.73;;
9827;SDS011;4953;48.952;9.442;2022-12-18T13:02:47;29.50;;;15.73;;
9827;SDS011;4953;48.952;9.442;2022-12-18T13:05:19;33.20;;;16.57;;
9827;SDS011;4953;48.952;9.442;2022-12-18T13:07:51;41.03;;;21.70;;
9827;SDS011;4953;48.952;9.442;2022-12-18T13:10:26;36.87;;;19.60;;
9827;SDS011;4953;48.952;9.442;2022-12-18T13:13:03;34.38;;;18.42;;
9827;SDS011;4953;48.952;9.442;2022-12-18T13:15:33;36.95;;;20.20;;
9827;SDS011;4953;48.952;9.442;2022-12-18T13:18:04;29.70;;;17.63;;
9827;SDS011;4953;48.952;9.442;2022-12-18T13:20:39;31.80;;;16.37;;
9827;SDS011;4953;48.952;9.442;2022-12-18T13:23:23;40.40;;;19.13;;
9827;SDS011;4953;48.952;9.442;2022-12-18T13:25:58;36.77;;;17.50;;
9827;SDS011;4953;48.952;9.442;2022-12-18T13:28:52;31.73;;;16.57;;
9827;SDS011;4953;48.952;9.442;2022-12-18T13:34:32;31.37;;;15.90;;
9827;SDS011;4953;48.952;9.442;2022-12-18T13:40:06;36.73;;;17.90;;
9827;SDS011;4953;48.952;9.442;2022-12-18T13:43:24;39.37;;;19.20;;
9827;SDS011;4953;48.952;9.442;2022-12-18T13:46:04;33.23;;;17.03;;
9827;SDS011;4953;48.952;9.442;2022-12-18T13:48:47;34.37;;;16.93;;
9827;SDS011;4953;48.952;9.442;2022-12-18T13:51:17;32.07;;;17.30;;
9827;SDS011;4953;48.952;9.442;2022-12-18T13:53:47;33.47;;;17.43;;
9827;SDS011;4953;48.952;9.442;2022-12-18T13:56:16;36.70;;;19.10;;
9827;SDS011;4953;48.952;9.442;2022-12-18T13:58:44;34.03;;;17.23;;
9827;SDS011;4953;48.952;9.442;2022-12-18T14:04:08;50.13;;;21.87;;
9827;SDS011;4953;48.952;9.442;2022-12-18T14:06:36;47.30;;;20.80;;
9827;SDS011;4953;48.952;9.442;2022-12-18T14:09:03;41.80;;;20.47;;
9827;SDS011;4953;48.952;9.442;2022-12-18T14:11:30;36.67;;;18.47;;
9827;SDS011;4953;48.952;9.442;2022-12-18T14:13:58;44.53;;;24.07;;
9827;SDS011;4953;48.952;9.442;2022-12-18T14:16:25;41.80;;;20.80;;
9827;SDS011;4953;48.952;9.442;2022-12-18T14:18:53;46.77;;;21.93;;
9827;SDS011;4953;48.952;9.442;2022-12-18T14:21:23;53.07;;;22.90;;
9827;SDS011;4953;48.952;9.442;2022-12-18T14:24:06;51.27;;;24.00;;
9827;SDS011;4953;48.952;9.442;2022-12-18T14:26:39;44.60;;;20.73;;
9827;SDS011;4953;48.952;9.442;2022-12-18T14:29:24;43.53;;;19.93;;
9827;SDS011;4953;48.952;9.442;2022-12-18T14:32:05;72.73;;;28.00;;
9827;SDS011;4953;48.952;9.442;2022-12-18T14:34:37;48.73;;;22.13;;
9827;SDS011;4953;48.952;9.442;2022-12-18T14:37:04;41.20;;;20.23;;
9827;SDS011;4953;48.952;9.442;2022-12-18T14:39:31;35.23;;;17.83;;
9827;SDS011;4953;48.952;9.442;2022-12-18T14:41:58;40.20;;;18.33;;
9827;SDS011;4953;48.952;9.442;2022-12-18T14:44:26;41.97;;;20.13;;
9827;SDS011;4953;48.952;9.442;2022-12-18T14:46:54;39.00;;;17.80;;
9827;SDS011;4953;48.952;9.442;2022-12-18T14:49:23;34.97;;;18.87;;
9827;SDS011;4953;48.952;9.442;2022-12-18T14:51:53;44.27;;;19.97;;
9827;SDS011;4953;48.952;9.442;2022-12-18T14:54:22;44.53;;;19.90;;
9827;SDS011;4953;48.952;9.442;2022-12-18T14:56:50;42.23;;;21.83;;
9827;SDS011;4953;48.952;9.442;2022-12-18T14:59:22;41.07;;;18.70;;
9827;SDS011;4953;48.952;9.442;2022-12-18T15:01:54;42.13;;;20.10;;
9827;SDS011;4953;48.952;9.442;2022-12-18T15:04:26;40.93;;;21.00;;
9827;SDS011;4953;48.952;9.442;2022-12-18T15:07:04;43.13;;;22.07;;
9827;SDS011;4953;48.952;9.442;2022-12-18T15:09:36;41.57;;;20.30;;
9827;SDS011;4953;48.952;9.442;2022-12-18T15:12:04;40.07;;;18.30;;
9827;SDS011;4953;48.952;9.442;2022-12-18T15:14:32;43.37;;;20.70;;
9827;SDS011;4953;48.952;9.442;2022-12-18T15:17:03;46.17;;;22.63;;
9827;SDS011;4953;48.952;9.442;2022-12-18T15:19:34;46.63;;;22.50;;
9827;SDS011;4953;48.952;9.442;2022-12-18T15:22:04;49.20;;;24.80;;
9827;SDS011;4953;48.952;9.442;2022-12-18T15:24:39;53.97;;;24.27;;
9827;SDS011;4953;48.952;9.442;2022-12-18T15:27:17;51.60;;;25.50;;
9827;SDS011;4953;48.952;9.442;2022-12-18T15:30:03;50.90;;;23.00;;
9827;SDS011;4953;48.952;9.442;2022-12-18T15:32:45;44.77;;;22.23;;
9827;SDS011;4953;48.952;9.442;2022-12-18T15:35:14;47.93;;;21.83;;
9827;SDS011;4953;48.952;9.442;2022-12-18T15:37:43;47.23;;;21.43;;
9827;SDS011;4953;48.952;9.442;2022-12-18T15:40:11;40.63;;;20.87;;
9827;SDS011;4953;48.952;9.442;2022-12-18T15:42:39;45.30;;;22.23;;
9827;SDS011;4953;48.952;9.442;2022-12-18T15:45:23;50.33;;;23.50;;
9827;SDS011;4953;48.952;9.442;2022-12-18T15:47:51;47.00;;;21.17;;
9827;SDS011;4953;48.952;9.442;2022-12-18T15:50:18;42.10;;;19.70;;
9827;SDS011;4953;48.952;9.442;2022-12-18T15:52:45;42.47;;;19.37;;
9827;SDS011;4953;48.952;9.442;2022-12-18T15:55:16;36.87;;;19.27;;
9827;SDS011;4953;48.952;9.442;2022-12-18T15:58:01;39.90;;;19.37;;
9827;SDS011;4953;48.952;9.442;2022-12-18T16:00:28;43.50;;;19.77;;
9827;SDS011;4953;48.952;9.442;2022-12-18T16:02:57;49.23;;;22.50;;
9827;SDS011;4953;48.952;9.442;2022-12-18T16:05:23;47.67;;;21.50;;
9827;SDS011;4953;48.952;9.442;2022-12-18T16:07:51;37.53;;;19.77;;
9827;SDS011;4953;48.952;9.442;2022-12-18T16:10:18;40.70;;;18.80;;
9827;SDS011;4953;48.952;9.442;2022-12-18T16:12:45;44.70;;;18.83;;
9827;SDS011;4953;48.952;9.442;2022-12-18T16:15:13;47.67;;;20.60;;
9827;SDS011;4953;48.952;9.442;2022-12-18T16:17:41;54.20;;;26.17;;
9827;SDS011;4953;48.952;9.442;2022-12-18T16:20:11;62.27;;;29.10;;
9827;SDS011;4953;48.952;9.442;2022-12-18T16:22:40;47.07;;;24.57;;
9827;SDS011;4953;48.952;9.442;2022-12-18T16:25:10;45.90;;;22.10;;
9827;SDS011;4953;48.952;9.442;2022-12-18T16:27:48;45.40;;;22.50;;
9827;SDS011;4953;48.952;9.442;2022-12-18T16:30:15;47.30;;;23.40;;
9827;SDS011;4953;48.952;9.442;2022-12-18T16:32:44;48.17;;;22.97;;
9827;SDS011;4953;48.952;9.442;2022-12-18T16:35:13;52.07;;;25.30;;
9827;SDS011;4953;48.952;9.442;2022-12-18T16:37:41;48.90;;;23.13;;
9827;SDS011;4953;48.952;9.442;2022-12-18T16:40:09;58.30;;;27.97;;
9827;SDS011;4953;48.952;9.442;2022-12-18T16:42:37;48.93;;;23.63;;
9827;SDS011;4953;48.952;9.442;2022-12-18T16:45:06;48.50;;;23.67;;
9827;SDS011;4953;48.952;9.442;2022-12-18T16:47:34;42.03;;;22.30;;
9827;SDS011;4953;48.952;9.442;2022-12-18T16:50:00;45.83;;;20.23;;
9827;SDS011;4953;48.952;9.442;2022-12-18T16:52:29;40.30;;;19.67;;
9827;SDS011;4953;48.952;9.442;2022-12-18T16:54:55;46.13;;;21.13;;
9827;SDS011;4953;48.952;9.442;2022-12-18T16:57:22;47.57;;;20.40;;
9827;SDS011;4953;48.952;9.442;2022-12-18T16:59:49;54.17;;;24.20;;
9827;SDS011;4953;48.952;9.442;2022-12-18T17:02:17;51.33;;;22.43;;
9827;SDS011;4953;48.952;9.442;2022-12-18T17:04:45;52.87;;;24.13;;
9827;SDS011;4953;48.952;9.442;2022-12-18T17:07:12;54.10;;;24.20;;
9827;SDS011;4953;48.952;9.442;2022-12-18T17:09:41;44.97;;;23.20;;
9827;SDS011;4953;48.952;9.442;2022-12-18T17:12:08;48.67;;;22.23;;
9827;SDS011;4953;48.952;9.442;2022-12-18T17:14:35;41.80;;;20.23;;
9827;SDS011;4953;48.952;9.442;2022-12-18T17:17:02;66.17;;;28.87;;
9827;SDS011;4953;48.952;9.442;2022-12-18T17:19:30;69.97;;;30.20;;
9827;SDS011;4953;48.952;9.442;2022-12-18T17:21:57;53.83;;;23.80;;
9827;SDS011;4953;48.952;9.442;2022-12-18T17:24:24;49.87;;;22.67;;
9827;SDS011;4953;48.952;9.442;2022-12-18T17:26:52;49.20;;;22.17;;
9827;SDS011;4953;48.952;9.442;2022-12-18T17:29:19;41.13;;;19.33;;
9827;SDS011;4953;48.952;9.442;2022-12-18T17:31:46;42.23;;;20.90;;
9827;SDS011;4953;48.952;9.442;2022-12-18T17:34:14;48.40;;;23.20;;
9827;SDS011;4953;48.952;9.442;2022-12-18T17:36:41;48.23;;;20.97;;
9827;SDS011;4953;48.952;9.442;2022-12-18T17:39:10;38.97;;;19.23;;
9827;SDS011;4953;48.952;9.442;2022-12-18T17:41:43;46.33;;;19.97;;
9827;SDS011;4953;48.952;9.442;2022-12-18T17:44:12;44.97;;;19.13;;
9827;SDS011;4953;48.952;9.442;2022-12-18T17:46:38;44.87;;;19.63;;
9827;SDS011;4953;48.952;9.442;2022-12-18T17:49:06;43.07;;;18.70;;
9827;SDS011;4953;48.952;9.442;2022-12-18T17:51:33;46.03;;;20.40;;
9827;SDS011;4953;48.952;9.442;2022-12-18T17:54:00;48.20;;;20.70;;
9827;SDS011;4953;48.952;9.442;2022-12-18T17:56:27;45.43;;;21.77;;
9827;SDS011;4953;48.952;9.442;2022-12-18T17:58:54;52.43;;;23.03;;
9827;SDS011;4953;48.952;9.442;2022-12-18T18:01:23;42.37;;;20.00;;
9827;SDS011;4953;48.952;9.442;2022-12-18T18:03:50;51.50;;;23.50;;
9827;SDS011;4953;48.952;9.442;2022-12-18T18:06:19;53.27;;;24.60;;
9827;SDS011;4953;48.952;9.442;2022-12-18T18:08:47;50.83;;;22.77;;
9827;SDS011;4953;48.952;9.442;2022-12-18T18:11:15;49.50;;;22.97;;
9827;SDS011;4953;48.952;9.442;2022-12-18T18:14:01;53.87;;;23.53;;
9827;SDS011;4953;48.952;9.442;2022-12-18T18:16:34;53.17;;;24.87;;
9827;SDS011;4953;48.952;9.442;2022-12-18T18:19:02;43.30;;;20.93;;
9827;SDS011;4953;48.952;9.442;2022-12-18T18:21:30;50.47;;;24.57;;
9827;SDS011;4953;48.952;9.442;2022-12-18T18:23:58;46.60;;;24.83;;
9827;SDS011;4953;48.952;9.442;2022-12-18T18:26:26;51.43;;;23.10;;
9827;SDS011;4953;48.952;9.442;2022-12-18T18:28:55;56.73;;;26.73;;
9827;SDS011;4953;48.952;9.442;2022-12-18T18:31:22;48.83;;;22.83;;
9827;SDS011;4953;48.952;9.442;2022-12-18T18:33:51;50.43;;;22.17;;
9827;SDS011;4953;48.952;9.442;2022-12-18T18:36:18;42.27;;;21.00;;
9827;SDS011;4953;48.952;9.442;2022-12-18T18:38:45;43.30;;;20.17;;
9827;SDS011;4953;48.952;9.442;2022-12-18T18:41:12;39.23;;;18.57;;
9827;SDS011;4953;48.952;9.442;2022-12-18T18:43:38;46.20;;;20.90;;
9827;SDS011;4953;48.952;9.442;2022-12-18T18:46:05;48.43;;;21.73;;
9827;SDS011;4953;48.952;9.442;2022-12-18T18:48:33;46.90;;;20.27;;
9827;SDS011;4953;48.952;9.442;2022-12-18T18:51:03;46.23;;;20.07;;
9827;SDS011;4953;48.952;9.442;2022-12-18T18:53:34;48.03;;;20.37;;
9827;SDS011;4953;48.952;9.442;2022-12-18T18:56:02;55.00;;;22.83;;
9827;SDS011;4953;48.952;9.442;2022-12-18T18:58:29;56.07;;;25.50;;
9827;SDS011;4953;48.952;9.442;2022-12-18T19:00:56;43.13;;;20.50;;
9827;SDS011;4953;48.952;9.442;2022-12-18T19:03:23;44.80;;;21.03;;
9827;SDS011;4953;48.952;9.442;2022-12-18T19:05:51;36.93;;;18.70;;
9827;SDS011;4953;48.952;9.442;2022-12-18T19:08:21;43.80;;;21.50;;
9827;SDS011;4953;48.952;9.442;2022-12-18T19:10:49;37.27;;;18.07;;
9827;SDS011;4953;48.952;9.442;2022-12-18T19:13:17;41.27;;;18.50;;
9827;SDS011;4953;48.952;9.442;2022-12-18T19:15:47;46.63;;;21.80;;
9827;SDS011;4953;48.952;9.442;2022-12-18T19:18:13;43.87;;;18.97;;
9827;SDS011;4953;48.952;9.442;2022-12-18T19:20:40;44.47;;;19.33;;
9827;SDS011;4953;48.952;9.442;2022-12-18T19:23:07;47.70;;;20.80;;
9827;SDS011;4953;48.952;9.442;2022-12-18T19:25:37;49.20;;;21.50;;
9827;SDS011;4953;48.952;9.442;2022-12-18T19:28:04;45.70;;;20.90;;
9827;SDS011;4953;48.952;9.442;2022-12-18T19:30:31;47.47;;;21.10;;
9827;SDS011;4953;48.952;9.442;2022-12-18T19:32:58;41.40;;;21.40;;
9827;SDS011;4953;48.952;9.442;2022-12-18T19:35:25;49.87;;;21.10;;
9827;SDS011;4953;48.952;9.442;2022-12-18T19:37:54;51.23;;;23.50;;
9827;SDS011;4953;48.952;9.442;2022-12-18T19:40:21;50.57;;;22.97;;
9827;SDS011;4953;48.952;9.442;2022-12-18T19:42:49;58.73;;;28.60;;
9827;SDS011;4953;48.952;9.442;2022-12-18T19:45:16;63.77;;;29.60;;
9827;SDS011;4953;48.952;9.442;2022-12-18T19:47:43;53.03;;;24.50;;
9827;SDS011;4953;48.952;9.442;2022-12-18T19:50:10;54.37;;;22.23;;
9827;SDS011;4953;48.952;9.442;2022-12-18T19:52:37;43.10;;;21.50;;
9827;SDS011;4953;48.952;9.442;2022-12-18T19:55:07;42.20;;;19.23;;
9827;SDS011;4953;48.952;9.442;2022-12-18T19:57:34;48.30;;;21.43;;
9827;SDS011;4953;48.952;9.442;2022-12-18T20:00:03;44.43;;;21.10;;
9827;SDS011;4953;48.952;9.442;2022-12-18T20:02:33;41.50;;;19.47;;
9827;SDS011;4953;48.952;9.442;2022-12-18T20:05:03;43.20;;;19.37;;
9827;SDS011;4953;48.952;9.442;2022-12-18T20:07:30;43.27;;;21.13;;
9827;SDS011;4953;48.952;9.442;2022-12-18T20:09:58;47.20;;;20.73;;
9827;SDS011;4953;48.952;9.442;2022-12-18T20:12:25;40.67;;;18.73;;
9827;SDS011;4953;48.952;9.442;2022-12-18T20:14:52;43.37;;;19.00;;
9827;SDS011;4953;48.952;9.442;2022-12-18T20:17:20;47.20;;;19.60;;
9827;SDS011;4953;48.952;9.442;2022-12-18T20:19:47;44.40;;;19.40;;
9827;SDS011;4953;48.952;9.442;2022-12-18T20:22:14;42.00;;;19.10;;